CMA CGM Aristote — MRPN4 — position and weather

sailwx.info

Track history (hours):
 
Tides and Currents Weather Stations Pressure Air Temp Water Temp Dewpoint Dewpoint Depression Visibility Wind Speed Wind Dir Waves Ship Positions

CMA CGM Aristote

Last reported at 2014-Jul-03 22:06 UTC. Time now 2014-Jul-26 17:14 UTC.
Position N 17°49' W 063°05'.
Warning: this ship's position is 22 days out of date.

Length 170 m; draft 8.7 m.

Type: Ship (hazmat cat A). MMSI: 235054581.

Date/timePositionNaut miles runAvg speedWind from/ knotsBaromVisibWave heightAir tempDewpointWater temp
2014-Jul-03 22:06N 17°49' W 063°05'1113.5
2014-Jul-03 21:15N 18°00' W 063°03'  
2014-Jun-28 14:11N 41°40' W 030°21'1218.6
2014-Jun-28 13:32N 41°47' W 030°07'2018.7
2014-Jun-28 12:28N 41°57' W 029°44'  
2014-Jun-25 17:06N 49°51' W 001°21'1517.4
2014-Jun-25 16:14N 49°45' W 000°59'1519.2
2014-Jun-25 15:28N 49°40' W 000°38'1819.4
2014-Jun-25 14:34N 49°33' W 000°13'1313.2
2014-Jun-25 13:34N 49°29' E 000°06'2 2.3
2014-Jun-25 12:32N 49°29' E 000°10'0 0.0
2014-Jun-25 11:32N 49°29' E 000°10'0 0.0
2014-Jun-25 10:29N 49°29' E 000°10'0 0.0
2014-Jun-25 09:29N 49°29' E 000°10'0 0.0
2014-Jun-25 08:26N 49°29' E 000°10'0 0.0
2014-Jun-25 07:32N 49°29' E 000°10'0 0.0
2014-Jun-25 06:32N 49°29' E 000°10'0 0.0
2014-Jun-25 05:32N 49°29' E 000°10'0 0.0
2014-Jun-25 04:32N 49°29' E 000°10'0 0.0
2014-Jun-25 03:26N 49°29' E 000°10'0 0.0
2014-Jun-25 02:32N 49°29' E 000°10'0 0.0
2014-Jun-25 01:32N 49°29' E 000°10'0 0.0
2014-Jun-25 00:32N 49°29' E 000°10'0 0.0
2014-Jun-24 23:29N 49°29' E 000°10'0 0.0
2014-Jun-24 22:29N 49°29' E 000°10'0 0.0
2014-Jun-24 21:29N 49°29' E 000°10'0 0.0
2014-Jun-24 20:29N 49°29' E 000°10'0 0.0
2014-Jun-24 19:29N 49°29' E 000°10'0 0.2
2014-Jun-24 18:33N 49°28' E 000°10'0 0.3
2014-Jun-24 17:33N 49°28' E 000°09'2 2.3
2014-Jun-24 16:33N 49°29' E 000°06'5 5.2
2014-Jun-24 15:31N 49°29' W 000°02'0 0.0
2014-Jun-24 14:31N 49°29' W 000°02'0 0.0
2014-Jun-24 13:25N 49°29' W 000°03'0 0.0
2014-Jun-24 12:31N 49°29' W 000°02'0 0.0
2014-Jun-24 11:31N 49°29' W 000°02'0 0.0
2014-Jun-24 10:28N 49°29' W 000°02'0 0.1
2014-Jun-24 09:22N 49°29' W 000°02'0 0.1
2014-Jun-24 08:31N 49°29' W 000°02'0 0.0
2014-Jun-24 07:29N 49°29' W 000°02'6 6.1
2014-Jun-24 06:33N 49°26' E 000°05'1010.5
2014-Jun-24 05:33N 49°26' E 000°21'7 7.4
2014-Jun-24 04:33N 49°28' E 000°32'  
Track history (hours):
 
Tides and Currents Weather Stations Pressure Air Temp Water Temp Dewpoint Dewpoint Depression Visibility Wind Speed Wind Dir Waves Ship Positions

CMA CGM Aristote

Last reported at 2014-Jul-03 22:06 UTC. Time now 2014-Jul-26 17:14 UTC.
Position N 17°49' W 063°05'.
Warning: this ship's position is 22 days out of date.

Length 170 m; draft 8.7 m.

Type: Ship (hazmat cat A). MMSI: 235054581.

Date/timePositionNaut miles runAvg speedWind from/ knotsBaromVisibWave heightAir tempDewpointWater temp
2014-Jul-03 22:06N 17°49' W 063°05'1113.5
2014-Jul-03 21:15N 18°00' W 063°03'  
2014-Jun-28 14:11N 41°40' W 030°21'1218.6
2014-Jun-28 13:32N 41°47' W 030°07'2018.7
2014-Jun-28 12:28N 41°57' W 029°44'  
2014-Jun-25 17:06N 49°51' W 001°21'1517.4
2014-Jun-25 16:14N 49°45' W 000°59'1519.2
2014-Jun-25 15:28N 49°40' W 000°38'1819.4
2014-Jun-25 14:34N 49°33' W 000°13'1313.2
2014-Jun-25 13:34N 49°29' E 000°06'2 2.3
2014-Jun-25 12:32N 49°29' E 000°10'0 0.0
2014-Jun-25 11:32N 49°29' E 000°10'0 0.0
2014-Jun-25 10:29N 49°29' E 000°10'0 0.0
2014-Jun-25 09:29N 49°29' E 000°10'0 0.0
2014-Jun-25 08:26N 49°29' E 000°10'0 0.0
2014-Jun-25 07:32N 49°29' E 000°10'0 0.0
2014-Jun-25 06:32N 49°29' E 000°10'0 0.0
2014-Jun-25 05:32N 49°29' E 000°10'0 0.0
2014-Jun-25 04:32N 49°29' E 000°10'0 0.0
2014-Jun-25 03:26N 49°29' E 000°10'0 0.0
2014-Jun-25 02:32N 49°29' E 000°10'0 0.0
2014-Jun-25 01:32N 49°29' E 000°10'0 0.0
2014-Jun-25 00:32N 49°29' E 000°10'0 0.0
2014-Jun-24 23:29N 49°29' E 000°10'0 0.0
2014-Jun-24 22:29N 49°29' E 000°10'0 0.0
2014-Jun-24 21:29N 49°29' E 000°10'0 0.0
2014-Jun-24 20:29N 49°29' E 000°10'0 0.0
2014-Jun-24 19:29N 49°29' E 000°10'0 0.2
2014-Jun-24 18:33N 49°28' E 000°10'0 0.3
2014-Jun-24 17:33N 49°28' E 000°09'2 2.3
2014-Jun-24 16:33N 49°29' E 000°06'5 5.2
2014-Jun-24 15:31N 49°29' W 000°02'0 0.0
2014-Jun-24 14:31N 49°29' W 000°02'0 0.0
2014-Jun-24 13:25N 49°29' W 000°03'0 0.0
2014-Jun-24 12:31N 49°29' W 000°02'0 0.0
2014-Jun-24 11:31N 49°29' W 000°02'0 0.0
2014-Jun-24 10:28N 49°29' W 000°02'0 0.1
2014-Jun-24 09:22N 49°29' W 000°02'0 0.1
2014-Jun-24 08:31N 49°29' W 000°02'0 0.0
2014-Jun-24 07:29N 49°29' W 000°02'6 6.1
2014-Jun-24 06:33N 49°26' E 000°05'1010.5
2014-Jun-24 05:33N 49°26' E 000°21'7 7.4
2014-Jun-24 04:33N 49°28' E 000°32'  

Dump ship's entire track history